createdAt,value
2023-02-11T00:00:20.242Z,77.20
2023-02-11T00:02:48.094Z,77.20
2023-02-11T00:05:15.115Z,77.30
2023-02-11T00:07:41.856Z,77.30
2023-02-11T00:10:08.829Z,77.40
2023-02-11T00:12:37.347Z,77.40
2023-02-11T00:15:05.460Z,77.50
2023-02-11T00:17:32.705Z,77.50
2023-02-11T00:19:59.316Z,77.50
2023-02-11T00:22:26.011Z,77.50
2023-02-11T00:24:52.639Z,77.60
2023-02-11T00:27:19.260Z,77.70
2023-02-11T00:29:46.084Z,77.60
2023-02-11T00:32:12.644Z,77.60
2023-02-11T00:34:39.331Z,77.60
2023-02-11T00:37:06.161Z,77.60
2023-02-11T00:39:32.812Z,77.60
2023-02-11T00:41:59.770Z,77.70
2023-02-11T00:44:26.392Z,77.60
2023-02-11T00:46:52.969Z,77.60
2023-02-11T00:49:19.655Z,77.60
2023-02-11T00:51:46.572Z,77.70
2023-02-11T00:54:13.334Z,77.70
2023-02-11T00:56:39.975Z,77.60
2023-02-11T00:59:06.617Z,77.70
2023-02-11T01:01:33.390Z,77.90
2023-02-11T01:04:00.169Z,77.90
2023-02-11T01:06:26.791Z,77.90
2023-02-11T01:08:53.580Z,77.90
2023-02-11T01:11:21.799Z,77.90
2023-02-11T01:13:49.791Z,77.90
2023-02-11T01:16:17.615Z,77.90
2023-02-11T01:18:44.399Z,77.90
2023-02-11T01:21:11.785Z,77.90
2023-02-11T01:23:38.495Z,77.80
2023-02-11T01:26:05.496Z,77.80
2023-02-11T01:28:32.940Z,78.00
2023-02-11T01:31:01.248Z,78.20
2023-02-11T01:33:28.191Z,78.10
2023-02-11T01:35:54.863Z,78.00
2023-02-11T01:38:26.167Z,78.20
2023-02-11T01:40:56.023Z,78.30
2023-02-11T01:43:24.436Z,78.30
2023-02-11T01:45:51.341Z,78.30
2023-02-11T01:48:23.845Z,78.40
2023-02-11T01:50:57.071Z,78.50
2023-02-11T01:53:42.816Z,78.50
2023-02-11T01:56:29.241Z,78.60
2023-02-11T01:59:02.362Z,78.60
2023-02-11T02:01:31.125Z,78.50
2023-02-11T02:04:01.402Z,78.50
2023-02-11T02:06:33.149Z,78.50
2023-02-11T02:09:09.805Z,78.50
2023-02-11T02:11:37.044Z,78.50
2023-02-11T02:14:04.152Z,78.60
2023-02-11T02:16:35.303Z,78.60
2023-02-11T02:19:14.054Z,78.70
2023-02-11T02:22:27.621Z,78.80
2023-02-11T02:25:29.842Z,78.80
2023-02-11T02:28:12.644Z,78.80
2023-02-11T02:31:29.886Z,78.70
2023-02-11T02:34:02.399Z,78.70
2023-02-11T02:36:42.465Z,78.70
2023-02-11T02:39:26.181Z,78.80
2023-02-11T02:41:54.863Z,79.80
2023-02-11T02:44:21.781Z,79.00
2023-02-11T02:46:48.503Z,79.10
2023-02-11T02:49:16.362Z,79.10
2023-02-11T02:52:03.091Z,79.20
2023-02-11T02:54:55.962Z,79.20
2023-02-11T02:57:29.472Z,79.30
2023-02-11T03:00:34.651Z,79.30
2023-02-11T03:03:20.072Z,79.40
2023-02-11T03:05:56.756Z,79.50
2023-02-11T03:08:26.464Z,79.50
2023-02-11T03:10:55.225Z,79.60
2023-02-11T03:13:27.167Z,79.60
2023-02-11T03:15:57.488Z,79.70
2023-02-11T03:18:27.330Z,79.80
2023-02-11T03:20:56.539Z,79.90
2023-02-11T03:23:48.556Z,79.90
2023-02-11T03:26:33.891Z,79.80
2023-02-11T03:29:06.263Z,79.80
2023-02-11T03:32:01.186Z,80.00
2023-02-11T03:34:42.293Z,80.00
2023-02-11T03:37:24.116Z,79.90
2023-02-11T03:40:02.812Z,80.80
2023-02-11T03:42:36.055Z,80.20
2023-02-11T03:45:16.657Z,80.30
2023-02-11T03:47:51.688Z,80.20
2023-02-11T03:50:20.443Z,80.30
2023-02-11T03:52:49.376Z,80.30
2023-02-11T03:55:19.207Z,80.40
2023-02-11T03:57:46.721Z,80.40
2023-02-11T04:00:14.401Z,80.50
2023-02-11T04:02:42.081Z,80.50
2023-02-11T04:05:10.394Z,80.60
2023-02-11T04:07:37.099Z,80.80
2023-02-11T04:10:04.573Z,80.90
2023-02-11T04:12:31.201Z,80.80
2023-02-11T04:14:58.180Z,80.90
2023-02-11T04:17:24.972Z,80.90
2023-02-11T04:19:51.637Z,80.90
2023-02-11T04:22:18.340Z,80.90
2023-02-11T04:24:45.020Z,80.90
2023-02-11T04:27:11.679Z,80.90
2023-02-11T04:29:38.343Z,80.90
2023-02-11T04:32:05.063Z,81.00
2023-02-11T04:34:32.115Z,81.00
2023-02-11T04:36:58.820Z,81.10
2023-02-11T04:39:25.582Z,81.10
2023-02-11T04:41:52.223Z,81.10
2023-02-11T04:44:18.957Z,81.00
2023-02-11T04:46:45.629Z,81.10
2023-02-11T04:49:14.653Z,81.20
2023-02-11T04:51:41.597Z,81.10
2023-02-11T04:54:08.936Z,81.20
2023-02-11T04:56:35.592Z,81.20
2023-02-11T04:59:02.322Z,81.10
2023-02-11T05:01:28.991Z,81.10
2023-02-11T05:03:55.765Z,81.20
2023-02-11T05:06:22.429Z,81.20
2023-02-11T05:08:49.074Z,81.20
2023-02-11T05:11:21.804Z,81.20
2023-02-11T05:13:48.526Z,81.20
2023-02-11T05:16:16.267Z,81.20
2023-02-11T05:18:44.452Z,81.30
2023-02-11T05:21:13.528Z,81.30
2023-02-11T05:23:41.038Z,81.30
2023-02-11T05:26:08.651Z,81.30
2023-02-11T05:28:35.532Z,81.40
2023-02-11T05:31:02.649Z,82.20
2023-02-11T05:33:29.288Z,81.50
2023-02-11T05:36:05.537Z,81.50
2023-02-11T05:38:32.665Z,81.60
2023-02-11T05:40:59.665Z,81.60
2023-02-11T05:43:26.318Z,81.60
2023-02-11T05:45:53.385Z,81.60
2023-02-11T05:48:20.152Z,81.60
2023-02-11T05:50:46.811Z,81.60
2023-02-11T05:53:13.470Z,81.60
2023-02-11T05:55:40.232Z,81.60
2023-02-11T05:58:08.009Z,81.70
2023-02-11T06:00:35.305Z,81.80
2023-02-11T06:03:02.067Z,81.80
2023-02-11T06:05:28.752Z,81.80
2023-02-11T06:07:55.427Z,81.70
2023-02-11T06:10:22.165Z,81.80
2023-02-11T06:12:48.745Z,81.70
2023-02-11T06:15:15.389Z,81.70
2023-02-11T06:17:42.009Z,81.70
2023-02-11T06:20:10.492Z,81.70
2023-02-11T06:22:37.307Z,81.80
2023-02-11T06:25:04.288Z,81.80
2023-02-11T06:27:31.158Z,81.80
2023-02-11T06:29:57.840Z,81.80
2023-02-11T06:32:42.849Z,81.80
2023-02-11T06:35:12.322Z,81.80
2023-02-11T06:37:39.810Z,81.80
2023-02-11T06:40:07.092Z,81.90
2023-02-11T06:42:34.598Z,81.90
2023-02-11T06:45:01.244Z,81.90
2023-02-11T06:47:27.902Z,81.90
2023-02-11T06:49:54.521Z,81.80
2023-02-11T06:52:21.094Z,81.80
2023-02-11T06:54:47.750Z,81.80
2023-02-11T06:57:14.438Z,82.20
2023-02-11T06:59:41.591Z,81.90
2023-02-11T07:02:10.232Z,81.90
2023-02-11T07:04:37.011Z,81.80
2023-02-11T07:07:03.718Z,81.80
2023-02-11T07:09:30.337Z,81.80
2023-02-11T07:11:56.966Z,81.80
2023-02-11T07:14:23.694Z,81.90
2023-02-11T07:16:50.372Z,81.90
2023-02-11T07:19:17.011Z,82.00
2023-02-11T07:21:43.662Z,82.00
2023-02-11T07:24:11.493Z,82.00
2023-02-11T07:26:38.545Z,82.00
2023-02-11T07:29:05.322Z,82.10
2023-02-11T07:31:32.611Z,82.00
2023-02-11T07:34:01.598Z,82.00
2023-02-11T07:36:30.388Z,82.00
2023-02-11T07:38:57.098Z,82.10
2023-02-11T07:41:24.788Z,82.10
2023-02-11T07:43:51.637Z,83.00
2023-02-11T07:46:24.080Z,82.20
2023-02-11T07:48:51.394Z,82.10
2023-02-11T07:51:25.066Z,82.10
2023-02-11T07:53:52.269Z,82.10
2023-02-11T07:56:20.403Z,82.20
2023-02-11T07:58:47.337Z,82.20
2023-02-11T08:01:18.857Z,82.10
2023-02-11T08:03:45.671Z,82.00
2023-02-11T08:06:14.445Z,82.10
2023-02-11T08:08:41.620Z,82.10
2023-02-11T08:11:28.509Z,82.00
2023-02-11T08:13:56.755Z,82.10
2023-02-11T08:16:29.616Z,82.00
2023-02-11T08:18:58.139Z,82.10
2023-02-11T08:21:25.115Z,82.00
2023-02-11T08:23:51.964Z,82.00
2023-02-11T08:26:21.356Z,82.00
2023-02-11T08:28:49.957Z,81.90
2023-02-11T08:31:20.156Z,81.90
2023-02-11T08:33:47.285Z,81.80
2023-02-11T08:36:20.304Z,81.80
2023-02-11T08:38:47.142Z,81.70
2023-02-11T08:41:17.178Z,81.80
2023-02-11T08:43:45.038Z,81.80
2023-02-11T08:46:14.601Z,81.80
2023-02-11T08:48:41.477Z,81.70
2023-02-11T08:51:10.243Z,81.70
2023-02-11T08:53:37.030Z,81.70
2023-02-11T08:56:04.042Z,81.70
2023-02-11T08:58:30.678Z,81.60
2023-02-11T09:00:57.353Z,81.70
2023-02-11T09:03:23.977Z,81.60
2023-02-11T09:05:53.146Z,81.60
2023-02-11T09:08:20.787Z,81.60
2023-02-11T09:10:47.376Z,81.50
2023-02-11T09:13:14.008Z,81.60
2023-02-11T09:15:40.694Z,81.50
2023-02-11T09:18:07.436Z,81.50
2023-02-11T09:20:34.221Z,81.50
2023-02-11T09:23:00.873Z,81.50
2023-02-11T09:25:27.674Z,81.30
2023-02-11T09:27:54.339Z,81.30
2023-02-11T09:30:21.535Z,81.10
2023-02-11T09:32:48.504Z,81.10
2023-02-11T09:35:15.158Z,81.10
2023-02-11T09:37:42.032Z,81.10
2023-02-11T09:40:09.302Z,81.00
2023-02-11T09:42:46.896Z,81.10
2023-02-11T09:45:25.332Z,81.00
2023-02-11T09:47:59.147Z,80.90
2023-02-11T09:50:36.264Z,80.90
2023-02-11T09:53:05.267Z,80.80
2023-02-11T09:55:49.473Z,80.70
2023-02-11T09:58:25.519Z,80.80
2023-02-11T10:01:21.792Z,80.80
2023-02-11T10:04:01.608Z,80.70
2023-02-11T10:06:45.561Z,80.60
2023-02-11T10:09:29.144Z,80.40
2023-02-11T10:12:33.311Z,80.40
2023-02-11T10:15:12.873Z,80.30
2023-02-11T10:17:54.605Z,80.20
2023-02-11T10:20:36.633Z,80.10
2023-02-11T10:23:15.418Z,79.90
2023-02-11T10:25:48.660Z,79.40
2023-02-11T10:28:20.824Z,78.50
2023-02-11T10:31:04.633Z,78.00
2023-02-11T10:33:43.446Z,77.20
2023-02-11T10:36:14.635Z,77.20
2023-02-11T10:38:41.293Z,76.70
2023-02-11T10:41:16.350Z,76.20
2023-02-11T10:43:43.170Z,76.00
2023-02-11T10:46:19.746Z,75.80
2023-02-11T10:48:53.765Z,75.60
2023-02-11T10:51:34.285Z,76.30
2023-02-11T10:54:08.168Z,75.40
2023-02-11T10:56:45.788Z,75.60
2023-02-11T10:59:27.283Z,75.70
2023-02-11T11:02:18.147Z,76.00
2023-02-11T11:04:46.090Z,75.90
2023-02-11T11:07:17.882Z,76.30
2023-02-11T11:09:54.909Z,76.20
2023-02-11T11:12:34.633Z,75.10
2023-02-11T11:15:21.868Z,74.50
2023-02-11T11:18:20.899Z,73.70
2023-02-11T11:21:12.189Z,73.70
2023-02-11T11:23:39.731Z,74.60
2023-02-11T11:26:07.909Z,74.80
2023-02-11T11:28:50.766Z,74.30
2023-02-11T11:31:21.559Z,73.90
2023-02-11T11:33:50.804Z,73.60
2023-02-11T11:36:21.383Z,73.40
2023-02-11T11:38:55.949Z,73.50
2023-02-11T11:41:34.186Z,73.50
2023-02-11T11:44:26.458Z,73.70
2023-02-11T11:47:10.521Z,73.20
2023-02-11T11:50:11.552Z,73.20
2023-02-11T11:52:48.272Z,73.20
2023-02-11T11:55:20.491Z,73.10
2023-02-11T11:57:48.521Z,73.30
2023-02-11T12:00:26.112Z,73.20
2023-02-11T12:03:13.061Z,73.10
2023-02-11T12:05:46.059Z,72.90
2023-02-11T12:08:40.808Z,72.90
2023-02-11T12:11:32.611Z,72.90
2023-02-11T12:14:01.941Z,73.00
2023-02-11T12:16:46.749Z,72.90
2023-02-11T12:19:32.837Z,72.60
2023-02-11T12:22:12.946Z,72.40
2023-02-11T12:25:01.488Z,72.30
2023-02-11T12:27:55.755Z,72.70
2023-02-11T12:30:45.706Z,72.70
2023-02-11T12:33:37.100Z,72.50
2023-02-11T12:36:43.038Z,72.40
2023-02-11T12:39:45.954Z,72.10
2023-02-11T12:42:49.948Z,71.60
2023-02-11T12:45:38.580Z,71.40
2023-02-11T12:48:07.864Z,71.40
2023-02-11T12:50:49.563Z,71.50
2023-02-11T12:53:19.333Z,70.90
2023-02-11T12:55:50.795Z,70.60
2023-02-11T12:58:29.657Z,70.50
2023-02-11T13:01:08.097Z,70.30
2023-02-11T13:03:44.857Z,70.20
2023-02-11T13:06:15.597Z,70.90
2023-02-11T13:08:51.287Z,70.00
2023-02-11T13:11:24.308Z,69.80
2023-02-11T13:14:03.519Z,69.60
2023-02-11T13:16:47.520Z,69.70
2023-02-11T13:19:23.296Z,69.70
2023-02-11T13:22:08.556Z,69.60
2023-02-11T13:24:44.241Z,69.20
2023-02-11T13:27:40.972Z,69.30
2023-02-11T13:30:34.624Z,69.40
2023-02-11T13:33:01.195Z,69.30
2023-02-11T13:35:32.547Z,69.40
2023-02-11T13:38:01.775Z,69.50
2023-02-11T13:40:39.477Z,69.30
2023-02-11T13:43:19.131Z,69.40
2023-02-11T13:45:47.958Z,69.40
2023-02-11T13:48:21.801Z,69.40
2023-02-11T13:50:53.264Z,69.50
2023-02-11T13:53:21.592Z,69.40
2023-02-11T13:55:51.072Z,69.30
2023-02-11T13:58:40.166Z,69.30
2023-02-11T14:01:07.685Z,69.30
2023-02-11T14:03:56.482Z,69.40
2023-02-11T14:06:44.333Z,69.40
2023-02-11T14:09:13.967Z,69.30
2023-02-11T14:11:42.798Z,69.00
2023-02-11T14:14:25.646Z,69.10
2023-02-11T14:16:58.339Z,69.20
2023-02-11T14:19:33.467Z,69.40
2023-02-11T14:22:25.738Z,69.40
2023-02-11T14:25:04.634Z,69.60
2023-02-11T14:27:44.253Z,69.60
2023-02-11T14:30:20.697Z,69.30
2023-02-11T14:33:06.588Z,69.50
2023-02-11T14:36:06.204Z,69.50
2023-02-11T14:38:44.659Z,69.50
2023-02-11T14:41:27.196Z,69.50
2023-02-11T14:44:00.989Z,69.60
2023-02-11T14:46:30.698Z,69.60
2023-02-11T14:49:01.833Z,69.60
2023-02-11T14:51:31.600Z,69.50
2023-02-11T14:54:02.973Z,70.40
2023-02-11T14:56:31.460Z,69.80
2023-02-11T14:58:58.459Z,69.80
2023-02-11T15:01:35.587Z,69.70
2023-02-11T15:04:04.449Z,69.80
2023-02-11T15:06:38.174Z,69.80
2023-02-11T15:09:29.335Z,70.60
2023-02-11T15:11:57.644Z,69.90
2023-02-11T15:14:31.465Z,70.00
2023-02-11T15:17:04.345Z,69.80
2023-02-11T15:19:38.260Z,69.90
2023-02-11T15:22:06.991Z,70.10
2023-02-11T15:24:35.402Z,70.00
2023-02-11T15:27:03.646Z,70.00
2023-02-11T15:29:43.313Z,70.10
2023-02-11T15:32:09.942Z,70.10
2023-02-11T15:34:37.189Z,70.30
2023-02-11T15:37:04.626Z,70.30
2023-02-11T15:39:36.685Z,70.30
2023-02-11T15:42:40.778Z,70.40
2023-02-11T15:45:16.944Z,70.50
2023-02-11T15:48:14.431Z,70.60
2023-02-11T15:50:42.676Z,70.70
2023-02-11T15:53:42.956Z,70.80
2023-02-11T15:56:21.043Z,70.90
2023-02-11T15:58:49.415Z,70.80
2023-02-11T16:01:16.356Z,70.80
2023-02-11T16:03:44.171Z,71.00
2023-02-11T16:06:23.928Z,71.10
2023-02-11T16:09:13.819Z,71.20
2023-02-11T16:11:46.427Z,71.30
2023-02-11T16:14:27.788Z,71.40
2023-02-11T16:16:56.678Z,71.50
2023-02-11T16:19:25.822Z,71.50
2023-02-11T16:21:54.881Z,71.50
2023-02-11T16:24:27.975Z,71.50
2023-02-11T16:27:00.727Z,71.60
2023-02-11T16:29:36.213Z,71.60
2023-02-11T16:32:09.531Z,71.60
2023-02-11T16:34:36.737Z,71.80
2023-02-11T16:37:05.453Z,71.80
2023-02-11T16:39:32.378Z,71.90
2023-02-11T16:41:59.339Z,72.00
2023-02-11T16:44:26.220Z,72.10
2023-02-11T16:46:53.540Z,72.20
2023-02-11T16:49:29.694Z,72.20
2023-02-11T16:52:01.186Z,72.40
2023-02-11T16:54:29.497Z,72.50
2023-02-11T16:56:56.663Z,72.60
2023-02-11T16:59:23.548Z,72.70
2023-02-11T17:01:52.037Z,72.80
2023-02-11T17:04:28.054Z,73.50
2023-02-11T17:06:57.883Z,72.90
2023-02-11T17:09:30.252Z,72.90
2023-02-11T17:11:57.540Z,73.00
2023-02-11T17:14:24.376Z,73.00
2023-02-11T17:16:51.056Z,73.10
2023-02-11T17:19:21.059Z,73.20
2023-02-11T17:21:50.504Z,73.20
2023-02-11T17:24:18.075Z,73.30
2023-02-11T17:26:45.211Z,73.40
2023-02-11T17:29:15.985Z,73.40
2023-02-11T17:31:43.262Z,73.50
2023-02-11T17:34:10.646Z,73.60
2023-02-11T17:36:37.360Z,73.70
2023-02-11T17:39:07.981Z,73.80
2023-02-11T17:41:37.528Z,73.90
2023-02-11T17:44:04.696Z,73.90
2023-02-11T17:46:32.209Z,73.90
2023-02-11T17:48:59.560Z,74.10
2023-02-11T17:51:29.231Z,74.10
2023-02-11T17:53:58.296Z,74.10
2023-02-11T17:56:25.241Z,74.20
2023-02-11T17:58:53.067Z,74.20
2023-02-11T18:01:20.313Z,74.30
2023-02-11T18:03:47.030Z,74.40
2023-02-11T18:06:13.682Z,74.50
2023-02-11T18:08:41.790Z,74.50
2023-02-11T18:11:12.470Z,74.50
2023-02-11T18:13:39.139Z,74.50
2023-02-11T18:16:08.322Z,74.60
2023-02-11T18:18:35.658Z,74.60
2023-02-11T18:21:03.927Z,74.70
2023-02-11T18:23:30.772Z,74.70
2023-02-11T18:25:57.384Z,74.80
2023-02-11T18:28:24.102Z,74.90
2023-02-11T18:30:57.939Z,74.90
2023-02-11T18:33:24.907Z,75.00
2023-02-11T18:35:51.985Z,75.00
2023-02-11T18:38:19.011Z,75.10
2023-02-11T18:40:50.393Z,75.10
2023-02-11T18:43:18.453Z,75.10
2023-02-11T18:45:47.178Z,75.20
2023-02-11T18:48:14.588Z,75.20
2023-02-11T18:50:43.246Z,75.30
2023-02-11T18:53:10.292Z,75.20
2023-02-11T18:55:41.334Z,75.20
2023-02-11T18:58:07.916Z,75.40
2023-02-11T19:00:36.102Z,75.40
2023-02-11T19:03:02.782Z,75.40
2023-02-11T19:05:33.184Z,75.40
2023-02-11T19:08:00.950Z,75.50
2023-02-11T19:10:28.262Z,75.40
2023-02-11T19:12:56.322Z,75.50
2023-02-11T19:15:23.307Z,75.50
2023-02-11T19:17:49.930Z,75.50
2023-02-11T19:20:17.062Z,75.70
2023-02-11T19:22:43.890Z,75.60
2023-02-11T19:25:11.132Z,75.60
2023-02-11T19:27:37.957Z,75.60
2023-02-11T19:30:05.048Z,75.70
2023-02-11T19:32:31.845Z,75.70
2023-02-11T19:34:58.475Z,75.70
2023-02-11T19:37:25.414Z,75.80
2023-02-11T19:39:52.068Z,75.80
2023-02-11T19:42:18.716Z,75.80
2023-02-11T19:44:45.314Z,75.90
2023-02-11T19:47:13.468Z,75.90
2023-02-11T19:49:40.052Z,75.90
2023-02-11T19:52:06.665Z,75.90
2023-02-11T19:54:33.329Z,75.90
2023-02-11T19:56:59.986Z,76.00
2023-02-11T19:59:26.715Z,75.90
2023-02-11T20:01:53.735Z,75.90
2023-02-11T20:04:20.370Z,76.00
2023-02-11T20:06:50.314Z,76.00
2023-02-11T20:09:16.961Z,76.00
2023-02-11T20:11:43.962Z,76.00
2023-02-11T20:14:14.609Z,76.00
2023-02-11T20:16:48.514Z,76.70
2023-02-11T20:19:17.709Z,76.00
2023-02-11T20:21:47.150Z,76.00
2023-02-11T20:24:14.871Z,76.10
2023-02-11T20:26:42.410Z,76.20
2023-02-11T20:29:09.208Z,76.20
2023-02-11T20:31:36.207Z,76.20
2023-02-11T20:34:03.045Z,76.10
2023-02-11T20:36:32.136Z,76.60
2023-02-11T20:39:00.147Z,76.10
2023-02-11T20:41:30.844Z,76.10
2023-02-11T20:44:02.181Z,76.10
2023-02-11T20:46:30.918Z,76.20
2023-02-11T20:48:58.005Z,76.20
2023-02-11T20:51:27.340Z,76.20
2023-02-11T20:53:54.417Z,76.30
2023-02-11T20:56:26.814Z,76.30
2023-02-11T20:58:53.561Z,76.40
2023-02-11T21:01:25.091Z,76.40
2023-02-11T21:03:55.467Z,76.40
2023-02-11T21:06:23.561Z,76.40
2023-02-11T21:08:50.204Z,76.30
2023-02-11T21:11:17.155Z,76.50
2023-02-11T21:13:44.366Z,76.40
2023-02-11T21:16:16.318Z,76.40
2023-02-11T21:18:43.145Z,76.50
2023-02-11T21:21:09.795Z,76.40
2023-02-11T21:23:36.409Z,76.50
2023-02-11T21:26:02.992Z,76.50
2023-02-11T21:28:29.612Z,76.50
2023-02-11T21:30:58.204Z,76.50
2023-02-11T21:33:26.320Z,76.50
2023-02-11T21:35:57.803Z,76.50
2023-02-11T21:38:25.400Z,76.60
2023-02-11T21:40:52.542Z,76.60
2023-02-11T21:43:19.474Z,76.60
2023-02-11T21:45:48.397Z,76.70
2023-02-11T21:48:15.975Z,76.70
2023-02-11T21:50:44.674Z,76.60
2023-02-11T21:53:12.216Z,76.60
2023-02-11T21:55:39.126Z,76.70
2023-02-11T21:58:06.113Z,76.60
2023-02-11T22:00:33.710Z,76.60
2023-02-11T22:03:00.347Z,76.70
2023-02-11T22:05:27.159Z,76.60
2023-02-11T22:07:53.815Z,76.60
2023-02-11T22:10:20.545Z,76.70
2023-02-11T22:12:47.286Z,76.70
2023-02-11T22:15:13.941Z,76.70
2023-02-11T22:17:40.560Z,76.70
2023-02-11T22:20:08.249Z,76.70
2023-02-11T22:22:35.318Z,76.80
2023-02-11T22:25:03.219Z,76.70
2023-02-11T22:27:29.950Z,76.70
2023-02-11T22:29:56.581Z,76.70
2023-02-11T22:32:23.252Z,76.70
2023-02-11T22:34:52.169Z,76.80
2023-02-11T22:37:20.112Z,76.80
2023-02-11T22:39:46.785Z,76.80
2023-02-11T22:42:13.421Z,76.70
2023-02-11T22:44:40.288Z,76.70
2023-02-11T22:47:07.067Z,76.70
2023-02-11T22:49:33.767Z,76.70
2023-02-11T22:52:00.527Z,76.70
2023-02-11T22:54:27.423Z,77.50
2023-02-11T22:56:54.040Z,76.70
2023-02-11T22:59:21.048Z,76.80
2023-02-11T23:01:48.039Z,76.80
2023-02-11T23:04:16.758Z,76.90
2023-02-11T23:06:43.433Z,77.30
2023-02-11T23:09:12.372Z,76.70
2023-02-11T23:11:39.412Z,76.80
2023-02-11T23:14:06.152Z,76.90
2023-02-11T23:16:34.296Z,76.80
2023-02-11T23:19:07.572Z,76.80
2023-02-11T23:21:37.119Z,76.90
2023-02-11T23:24:14.075Z,76.90
2023-02-11T23:26:42.547Z,76.90
2023-02-11T23:29:09.916Z,76.90
2023-02-11T23:31:39.753Z,76.90
2023-02-11T23:34:07.593Z,76.90
2023-02-11T23:36:34.207Z,77.00
2023-02-11T23:39:00.886Z,77.00
2023-02-11T23:41:28.724Z,77.00
2023-02-11T23:43:57.387Z,77.10
2023-02-11T23:46:25.615Z,77.10
2023-02-11T23:48:52.399Z,78.00
2023-02-11T23:51:19.819Z,77.20
2023-02-11T23:53:49.044Z,77.20
2023-02-11T23:56:18.808Z,77.20
2023-02-11T23:58:48.738Z,77.20
